Latest Weather Observations for Cape Naturaliste

IDW60801

Issued at 11:03 am WST Tuesday 27 January 2015 (issued every 30 minutes, with the page automatically refreshed every 10 minutes)

About weather observations | Map of weather stations | Latest weather observations for WA | Other Formats
Station Details ID: 009519 Name: CAPE NATURALISTE Lat: -33.54 Lon: 115.02 Height: 109.0 m
Data from the previous 72 hours. | See also: Recent months at Cape Naturaliste
Date/Time
WST
Temp
°C
App
Temp
°C
Dew
Point
Rel
Hum
%
Delta-T
°C
Wind Press
QNH
hPa
Press
MSL
hPa
Rain
since 9 am
mm
Dir
 
Spd
km/h
Gust
km/h
Spd
kts
Gust
kts
27/11:00am 31.9 28.2 10.0 26 12.6 ESE 20 28 11 15 1010.1 1009.7 0.0
27/10:30am 29.6 24.8 10.2 30 11.0 ESE 26 33 14 18 1010.0 1009.6 0.0
27/10:00am 28.1 22.3 9.4 31 10.4 ESE 30 35 16 19 1010.1 1009.7 0.0
27/09:30am 26.6 21.3 9.9 35 9.3 ESE 28 37 15 20 1009.9 1009.5 0.0
27/09:00am 25.2 19.6 10.3 39 8.3 ESE 30 41 16 22 1010.0 1009.6 0.0
27/08:30am 24.0 19.0 11.0 44 7.3 ESE 28 37 15 20 1010.1 1009.7 0.0
27/08:00am 22.4 17.3 11.8 51 6.0 ESE 30 37 16 20 1010.3 1009.9 0.0
27/07:30am 21.1 15.6 12.0 56 5.1 ESE 32 41 17 22 1010.2 1009.8 0.0
27/07:00am 19.6 14.0 11.6 60 4.4 ESE 32 41 17 22 1010.1 1009.7 0.0
27/06:30am 18.6 12.9 11.2 62 4.0 ESE 32 37 17 20 1010.0 1009.6 0.0
27/06:00am 17.5 11.6 10.6 64 3.7 ESE 32 39 17 21 1009.9 1009.5 0.0
27/05:30am 17.7 11.9 10.8 64 3.7 ESE 32 39 17 21 1009.8 1009.4 0.0
27/05:00am 18.5 12.8 11.1 62 4.0 ESE 32 39 17 21 1009.6 1009.2 0.0
27/04:30am 18.7 13.0 11.3 62 4.1 ESE 32 39 17 21 1009.2 1008.9 0.0
27/04:00am 18.9 13.2 11.2 61 4.2 ESE 32 39 17 21 1009.2 1008.9 0.0
27/03:30am 19.4 13.9 11.7 61 4.3 ESE 32 43 17 23 1009.1 1008.8 0.0
27/03:00am 19.7 14.1 11.5 59 4.5 ESE 32 39 17 21 1009.0 1008.7 0.0
27/02:30am 20.1 14.5 11.6 58 4.7 ESE 32 41 17 22 1009.0 1008.7 0.0
27/02:00am 20.7 15.0 11.9 57 4.9 ESE 33 41 18 22 1008.9 1008.6 0.0
27/01:30am 20.9 15.4 11.8 56 5.1 ESE 32 41 17 22 1009.1 1008.8 0.0
27/01:00am 21.3 15.5 10.8 51 5.8 ESE 32 41 17 22 1009.2 1008.9 0.0
27/12:30am 21.4 15.9 10.6 50 5.9 ESE 30 43 16 23 1009.5 1009.1 0.0
27/12:00am 22.1 16.2 10.6 48 6.4 ESE 32 43 17 23 1009.6 1009.2 0.0
 
Date/Time
WST
Temp
°C
App
Temp
°C
Dew
Point
Rel
Hum
%
Delta-T
°C
Wind Press
QNH
hPa
Press
MSL
hPa
Rain
since 9 am
mm
Dir
 
Spd
km/h
Gust
km/h
Spd
kts
Gust
kts
26/11:30pm 22.2 16.5 11.0 49 6.2 ESE 32 39 17 21 1009.7 1009.3 0.0
26/11:00pm 22.5 17.4 11.9 51 6.0 ESE 30 41 16 22 1009.7 1009.3 0.0
26/10:30pm 23.2 19.5 11.6 48 6.5 SE 22 28 12 15 1009.8 1009.4 0.0
26/10:00pm 23.6 20.6 12.6 50 6.3 SE 20 32 11 17 1010.0 1009.6 0.0
26/09:30pm 23.5 20.6 12.8 51 6.2 SSE 20 26 11 14 1010.2 1009.8 0.0
26/09:00pm 23.9 20.8 12.2 48 6.7 SSE 20 28 11 15 1010.2 1009.8 0.0
26/08:30pm 23.8 20.8 10.8 44 7.3 S 17 20 9 11 1010.2 1009.8 0.0
26/08:00pm 23.2 20.5 11.6 48 6.6 SSW 17 22 9 12 1010.1 1009.7 0.0
26/07:30pm 24.3 22.0 12.9 49 6.6 SSW 17 20 9 11 1010.2 1009.8 0.0
26/07:00pm 26.5 23.6 12.2 41 8.3 S 19 24 10 13 1010.2 1009.8 0.0
26/06:30pm 27.9 24.6 12.7 39 8.9 S 22 28 12 15 1010.1 1009.7 0.0
26/06:00pm 28.0 25.6 14.3 43 8.3 SSW 20 26 11 14 1009.9 1009.5 0.0
26/05:30pm 27.3 25.7 15.0 47 7.5 SSW 17 22 9 12 1010.1 1009.7 0.0
26/05:00pm 27.7 25.7 15.0 45 7.7 SSW 19 24 10 13 1010.3 1009.9 0.0
26/04:30pm 28.2 27.2 15.5 46 7.8 SW 15 20 8 11 1010.6 1010.2 0.0
26/04:00pm 27.6 25.6 14.9 45 7.7 SW 19 22 10 12 1010.7 1010.3 0.0
26/03:30pm 27.5 25.3 14.5 45 7.8 SW 19 24 10 13 1011.0 1010.6 0.0
26/03:00pm 27.4 25.6 15.4 48 7.3 SW 19 24 10 13 1011.4 1011.0 0.0
26/02:30pm 27.6 25.4 14.3 44 8.0 SW 19 24 10 13 1011.7 1011.3 0.0
26/02:00pm 26.9 24.7 13.3 43 8.0 SW 17 22 9 12 1012.1 1011.7 0.0
26/01:30pm 26.4 24.6 13.2 44 7.8 SW 15 20 8 11 1012.3 1011.9 0.0
26/01:00pm 26.1 23.6 12.2 42 8.0 SW 17 20 9 11 1012.7 1012.3 0.0
26/12:30pm 25.5 24.2 12.4 44 7.6 SW 11 15 6 8 1013.4 1013.0 0.0
26/12:00pm 28.5 25.8 10.2 32 10.3 ESE 15 22 8 12 1013.9 1013.5 0.0
26/11:30am 26.9 22.7 9.7 34 9.6 ESE 22 32 12 17 1014.2 1013.8 0.0
26/11:00am 25.9 21.4 10.1 37 8.8 ESE 24 33 13 18 1014.7 1014.3 0.0
26/10:30am 23.5 17.3 9.5 41 7.6 ESE 32 41 17 22 1014.9 1014.6 0.0
26/10:00am 22.8 16.9 10.6 46 6.7 ESE 32 39 17 21 1015.0 1014.7 0.0
26/09:30am 21.4 15.0 10.6 50 5.9 ESE 35 46 19 25 1015.3 1015.0 0.0
26/09:00am 19.9 13.0 10.3 54 5.2 ESE 37 48 20 26 1015.4 1015.1 0.0
26/08:30am 18.4 11.3 9.7 57 4.6 ESE 37 46 20 25 1015.8 1015.5 0.0
26/08:00am 17.5 10.4 9.7 60 4.1 ESE 37 48 20 26 1016.1 1015.8 0.0
26/07:30am 16.7 10.0 9.6 63 3.7 ESE 35 48 19 26 1016.5 1016.2 0.0
26/07:00am 15.9 9.6 9.6 66 3.3 ESE 33 44 18 24 1016.6 1016.3 0.0
26/06:30am 15.4 8.7 9.7 69 3.0 E 35 46 19 25 1016.6 1016.3 0.0
26/06:00am 14.7 7.9 9.3 70 2.8 E 35 48 19 26 1016.7 1016.4 0.0
26/05:30am 14.3 7.8 8.9 70 2.8 ESE 33 46 18 25 1016.7 1016.4 0.0
26/05:00am 14.2 7.3 8.8 70 2.7 ESE 35 46 19 25 1016.4 1016.1 0.0
26/04:30am 14.3 6.9 8.5 68 2.9 ESE 37 50 20 27 1016.0 1015.7 0.0
26/04:00am 14.5 7.1 8.5 67 3.0 ESE 37 52 20 28 1015.9 1015.6 0.0
26/03:30am 14.9 7.5 8.4 65 3.3 ESE 37 50 20 27 1016.0 1015.7 0.0
26/03:00am 15.3 8.3 8.5 64 3.5 ESE 35 46 19 25 1016.1 1015.8 0.0
26/02:30am 15.8 8.9 8.8 63 3.6 ESE 35 46 19 25 1016.0 1015.7 0.0
26/02:00am 16.2 9.7 8.9 62 3.8 ESE 33 44 18 24 1016.1 1015.8 0.0
26/01:30am 16.7 9.9 9.4 62 3.8 ESE 35 46 19 25 1016.2 1015.9 0.0
26/01:00am 16.2 9.7 8.9 62 3.8 ESE 33 43 18 23 1016.0 1015.7 0.0
26/12:30am 16.6 9.8 9.1 61 3.9 ESE 35 44 19 24 1015.9 1015.6 0.0
26/12:00am 17.1 10.4 9.5 61 4.0 SE 35 44 19 24 1015.9 1015.6 0.0
 
Date/Time
WST
Temp
°C
App
Temp
°C
Dew
Point
Rel
Hum
%
Delta-T
°C
Wind Press
QNH
hPa
Press
MSL
hPa
Rain
since 9 am
mm
Dir
 
Spd
km/h
Gust
km/h
Spd
kts
Gust
kts
25/11:30pm 17.2 10.6 9.9 62 3.9 SE 35 44 19 24 1015.8 1015.5 0.0
25/11:00pm 17.4 10.5 10.3 63 3.8 SE 37 48 20 26 1015.7 1015.4 0.0
25/10:30pm 17.7 10.9 10.6 63 3.8 SE 37 48 20 26 1015.6 1015.3 0.0
25/10:00pm 18.2 11.9 11.0 63 3.9 SE 35 52 19 28 1015.5 1015.2 0.0
25/09:35pm 18.3 12.0 11.1 63 3.9 SE 35 54 19 29 1015.5 1015.2 0.0
25/09:30pm 18.1 12.2 11.2 64 3.8 SE 33 44 18 24 1015.5 1015.2 0.0
25/09:00pm 18.4 11.8 11.5 64 3.8 SSE 37 50 20 27 1015.3 1015.0 0.0
25/08:34pm 18.3 13.1 11.6 65 3.7 SSE 30 48 16 26 1015.3 1015.0 0.0
25/08:30pm 18.3 13.4 11.4 64 3.8 S 28 41 15 22 1015.4 1015.1 0.0
25/08:00pm 18.8 14.4 11.6 63 4.0 S 26 39 14 21 1015.2 1014.9 0.0
25/07:30pm 19.5 15.0 11.3 59 4.5 S 26 43 14 23 1014.8 1014.5 0.0
25/07:00pm 21.6 17.4 11.0 51 5.9 S 24 35 13 19 1015.0 1014.7 0.0
25/06:30pm 23.5 18.9 11.2 46 6.9 S 26 33 14 18 1014.9 1014.6 0.0
25/06:00pm 24.8 20.2 11.0 42 7.8 S 26 35 14 19 1014.7 1014.3 0.0
25/05:30pm 25.9 22.9 12.4 43 7.8 SSW 20 30 11 16 1014.7 1014.3 0.0
25/05:00pm 25.3 23.0 14.7 51 6.4 SSW 20 28 11 15 1014.9 1014.6 0.0
25/04:30pm 26.1 24.4 14.6 49 6.9 SW 17 22 9 12 1015.1 1014.8 0.0
25/04:00pm 26.5 24.4 13.6 45 7.6 SW 17 20 9 11 1015.6 1015.3 0.0
25/03:30pm 26.4 24.4 13.9 46 7.4 SW 17 24 9 13 1015.8 1015.5 0.0
25/03:00pm 26.4 24.2 13.2 44 7.8 WSW 17 22 9 12 1016.2 1015.9 0.0
25/02:30pm 25.7 23.2 12.2 43 7.8 WSW 17 22 9 12 1016.5 1016.2 0.0
25/02:00pm 25.3 22.8 12.2 44 7.5 WSW 17 22 9 12 1017.0 1016.7 0.0
25/01:30pm 25.4 22.8 13.3 47 7.1 WSW 19 24 10 13 1017.2 1016.9 0.0
25/01:00pm 24.7 21.8 12.3 46 7.1 W 19 24 10 13 1017.5 1017.2 0.0
25/12:30pm 24.5 22.3 10.8 42 7.7 WNW 13 20 7 11 1017.8 1017.5 0.0
25/12:00pm 24.7 21.6 10.2 40 8.0 ENE 17 20 9 11 1018.1 1017.8 0.0
25/11:30am 24.3 20.5 9.8 40 8.0 E 20 26 11 14 1018.2 1017.9 0.0
25/11:00am 23.4 19.3 10.1 43 7.3 E 22 30 12 16 1018.5 1018.2 0.0
25/10:30am 23.0 18.2 10.4 45 7.0 E 26 33 14 18 1018.7 1018.4 0.0
25/10:00am 21.8 16.7 10.6 49 6.2 E 28 37 15 20 1019.1 1018.7 0.0
25/09:30am 20.6 15.7 9.8 50 5.8 ESE 26 35 14 19 1019.2 1018.8 0.0
25/09:00am 19.4 13.1 9.6 53 5.2 ESE 33 48 18 26 1019.1 1018.7 0.0
25/08:30am 19.1 12.9 9.9 55 4.9 ESE 33 46 18 25 1019.1 1018.7 0.0
25/08:08am 18.2 12.5 9.8 58 4.5 ESE 30 48 16 26 1019.1 1018.7 0.0
25/08:00am 18.1 11.9 10.0 59 4.3 ESE 33 43 18 23 1019.1 1018.7 0.0
25/07:30am 16.7 9.9 9.4 62 3.8 ESE 35 46 19 25 1019.2 1018.8 0.0
25/07:00am 15.4 8.5 8.9 65 3.3 SE 35 50 19 27 1018.8 1018.5 0.0
25/06:30am 14.4 7.5 8.8 69 2.9 SE 35 48 19 26 1018.5 1018.2 0.0
25/06:00am 13.4 6.5 8.7 73 2.4 SE 35 44 19 24 1018.3 1018.0 0.0
25/05:30am 13.1 6.7 8.6 74 2.3 SE 32 43 17 23 1018.1 1017.8 0.0
25/05:00am 13.1 6.5 8.6 74 2.3 SE 33 50 18 27 1017.8 1017.5 0.0
25/04:30am 13.2 6.3 8.7 74 2.3 SE 35 44 19 24 1017.4 1017.1 0.0
25/04:00am 13.3 6.4 8.8 74 2.3 SE 35 43 19 23 1017.3 1017.0 0.0
25/03:30am 13.4 6.8 8.7 73 2.4 SE 33 43 18 23 1017.1 1016.8 0.0
25/03:00am 13.6 7.1 8.9 73 2.4 SE 33 46 18 25 1017.0 1016.7 0.0
25/02:30am 13.8 7.3 8.8 72 2.5 SE 33 50 18 27 1016.9 1016.6 0.0
25/02:00am 14.1 7.3 9.1 72 2.6 SE 35 48 19 26 1016.7 1016.4 0.0
25/01:30am 14.3 7.5 9.1 71 2.7 SE 35 50 19 27 1016.7 1016.4 0.0
25/01:00am 14.6 7.4 9.2 70 2.8 SE 37 48 20 26 1016.7 1016.4 0.0
25/12:30am 14.8 7.6 9.2 69 2.9 SE 37 54 20 29 1016.8 1016.5 0.0
25/12:07am 15.1 8.3 9.2 68 3.0 SE 35 54 19 29 1016.8 1016.5 0.0
25/12:00am 15.2 8.0 9.1 67 3.1 SE 37 50 20 27 1016.9 1016.6 0.0
 
Date/Time
WST
Temp
°C
App
Temp
°C
Dew
Point
Rel
Hum
%
Delta-T
°C
Wind Press
QNH
hPa
Press
MSL
hPa
Rain
since 9 am
mm
Dir
 
Spd
km/h
Gust
km/h
Spd
kts
Gust
kts
24/11:39pm 15.4 9.2 9.3 67 3.2 SE 32 52 17 28 1017.1 1016.8 0.0
24/11:30pm 15.3 10.2 9.2 67 3.1 SE 26 44 14 24 1017.3 1017.0 0.0
24/11:00pm 15.4 10.7 9.3 67 3.2 SSE 24 43 13 23 1017.5 1017.2 0.0
24/10:30pm 15.6 11.4 9.7 68 3.1 SSE 22 35 12 19 1017.5 1017.2 0.0
24/10:00pm 15.7 11.2 10.0 69 3.0 S 24 35 13 19 1017.5 1017.2 0.0
24/09:30pm 15.8 11.3 10.1 69 3.0 S 24 35 13 19 1017.4 1017.1 0.0
24/09:00pm 16.0 11.5 10.1 68 3.1 S 24 39 13 21 1017.2 1016.9 0.0
24/08:30pm 16.6 11.4 10.2 66 3.4 S 28 37 15 20 1016.9 1016.6 0.0
24/08:00pm 17.1 11.9 10.2 64 3.7 S 28 39 15 21 1016.6 1016.3 0.0
24/07:30pm 17.7 13.1 9.6 59 4.3 S 24 32 13 17 1016.5 1016.2 0.0
24/07:00pm 18.5 13.6 10.1 58 4.5 S 26 35 14 19 1016.5 1016.2 0.0
24/06:30pm 19.2 13.6 10.2 56 4.8 S 30 39 16 21 1016.5 1016.2 0.0
24/06:00pm 19.2 13.4 12.7 66 3.7 SSW 35 44 19 24 1016.3 1016.0 0.0
24/05:30pm 19.3 13.4 12.3 64 3.9 SSW 35 48 19 26 1015.9 1015.6 0.0
24/05:00pm 20.5 13.7 13.0 62 4.3 SSW 41 56 22 30 1016.0 1015.7 0.0
24/04:30pm 20.0 13.1 12.7 63 4.1 SSW 41 57 22 31 1016.2 1015.9 0.0
24/04:00pm 21.5 14.1 12.4 56 5.2 SSW 43 54 23 29 1016.4 1016.1 0.0
24/03:46pm 21.2 14.0 11.8 55 5.3 SSW 41 59 22 32 1016.4 1016.1 0.0
24/03:30pm 21.6 13.7 11.3 52 5.7 SSW 44 57 24 31 1016.5 1016.2 0.0
24/03:00pm 19.7 11.7 10.4 55 5.0 SSW 43 54 23 29 1016.4 1016.1 0.0
24/02:33pm 21.7 14.1 11.7 53 5.6 SSW 43 61 23 33 1016.4 1016.1 0.0
24/02:30pm 20.9 13.0 11.5 55 5.2 SSW 44 61 24 33 1016.5 1016.2 0.0
24/02:00pm 21.6 13.8 11.9 54 5.5 SSW 44 57 24 31 1016.5 1016.2 0.0
24/01:53pm 21.0 13.5 12.2 57 5.0 SSW 43 61 23 33 1016.5 1016.2 0.0
24/01:30pm 21.1 13.8 11.4 54 5.4 SSW 41 52 22 28 1016.7 1016.4 0.0
24/01:23pm 22.6 15.8 12.0 51 6.0 SSW 39 57 21 31 1016.7 1016.4 0.0
24/01:00pm 21.9 14.8 11.0 50 6.0 SSW 39 54 21 29 1016.9 1016.6 0.0
24/12:30pm 21.6 16.1 11.9 54 5.5 SSW 32 43 17 23 1017.4 1017.1 0.0
24/12:00pm 20.4 14.9 11.9 58 4.7 SSW 32 43 17 23 1017.6 1017.3 0.0
24/11:37am 21.0 17.2 11.3 54 5.4 S 22 39 12 21 1017.8 1017.5 0.0
24/11:30am 22.2 18.5 11.6 51 6.0 SSW 22 30 12 16 1017.9 1017.6 0.0

Other Formats:

Comma delimited format used in spreadsheet applications
http://www.bom.gov.au/fwo/IDW60801/IDW60801.94600.axf

JavaScript Object Notation format (JSON) in row-major order
http://www.bom.gov.au/fwo/IDW60801/IDW60801.94600.json